createdAt,value
2018-09-24T00:01:52.544Z,0
2018-09-24T00:12:06.599Z,0
2018-09-24T00:22:20.425Z,0
2018-09-24T00:32:34.265Z,0
2018-09-24T00:42:49.394Z,0
2018-09-24T00:53:03.399Z,0
2018-09-24T01:03:18.592Z,0
2018-09-24T01:13:33.274Z,0
2018-09-24T01:23:47.782Z,0
2018-09-24T01:34:01.710Z,0
2018-09-24T01:44:16.749Z,0
2018-09-24T01:54:32.336Z,0
2018-09-24T02:04:46.131Z,0
2018-09-24T02:14:59.910Z,0
2018-09-24T02:25:15.498Z,0
2018-09-24T02:35:29.715Z,0
2018-09-24T02:45:44.856Z,0
2018-09-24T02:55:58.615Z,0
2018-09-24T03:06:13.807Z,0
2018-09-24T03:16:27.871Z,0
2018-09-24T03:26:42.620Z,0
2018-09-24T03:36:57.941Z,0
2018-09-24T03:47:12.688Z,0
2018-09-24T03:57:27.141Z,0
2018-09-24T04:07:42.308Z,0
2018-09-24T04:17:55.992Z,0
2018-09-24T04:28:10.746Z,0
2018-09-24T04:38:25.397Z,0
2018-09-24T04:48:40.772Z,4
2018-09-24T04:58:56.107Z,28
2018-09-24T05:09:10.954Z,136
2018-09-24T05:19:24.637Z,440
2018-09-24T05:29:38.974Z,952
2018-09-24T05:39:53.732Z,1640
2018-09-24T05:50:08.230Z,2300
2018-09-24T06:00:23.320Z,2868
2018-09-24T06:10:38.198Z,3260
2018-09-24T06:20:53.910Z,3908
2018-09-24T06:31:07.836Z,4316
2018-09-24T06:41:21.741Z,4940
2018-09-24T06:51:36.660Z,4920
2018-09-24T07:01:51.786Z,5108
2018-09-24T07:12:05.964Z,5892
2018-09-24T07:22:20.518Z,7668
2018-09-24T07:32:35.580Z,9396
2018-09-24T07:42:49.576Z,15628
2018-09-24T07:53:04.842Z,15700
2018-09-24T08:03:20.571Z,23552
2018-09-24T08:13:35.208Z,27776
2018-09-24T08:23:49.388Z,28896
2018-09-24T08:34:04.040Z,31200
2018-09-24T08:44:18.251Z,32576
2018-09-24T08:54:32.662Z,39488
2018-09-24T09:04:48.155Z,39872
2018-09-24T09:15:02.244Z,42048
2018-09-24T09:25:17.163Z,42080
2018-09-24T09:35:31.178Z,55008
2018-09-24T09:56:01.021Z,74144
2018-09-24T10:06:16.341Z,18656
2018-09-24T10:16:30.417Z,64640
2018-09-24T10:26:45.906Z,65568
2018-09-24T10:37:00.969Z,78944
2018-09-24T10:47:15.303Z,29952
2018-09-24T10:57:30.805Z,24576
2018-09-24T11:07:45.721Z,68544
2018-09-24T11:18:00.830Z,59104
2018-09-24T11:28:15.749Z,67776
2018-09-24T11:38:30.812Z,65952
2018-09-24T11:48:45.933Z,65056
2018-09-24T11:59:01.898Z,24992
2018-09-24T12:09:17.501Z,66336
2018-09-24T12:19:31.955Z,50144
2018-09-24T12:29:46.029Z,20096
2018-09-24T12:40:00.514Z,57760
2018-09-24T12:50:15.032Z,23872
2018-09-24T13:00:29.880Z,30816
